This is the latest recevied weather packets stored in our database for station/object ZL1CTS-13. If no packets are shown the sender has not sent any weather packets the latest 10 day(s).
| Time | Temp. | Humidity | Pressure | Rain* | Wind** | Luminosity | Snow |
|---|---|---|---|---|---|---|---|
| 1777870804 | 16.67° C | 74% | 1024.2 hPa | 0 mm | - | - | - |
| 1777870203 | 15.56° C | 75% | 1024.1 hPa | 0 mm | - | - | - |
| 1777869604 | 16.11° C | 74% | 1024.2 hPa | 0 mm | - | - | - |
| 1777869004 | 16.11° C | 73% | 1024.2 hPa | 0 mm | - | - | - |
| 1777868404 | 16.11° C | 71% | 1024.3 hPa | 0 mm | - | - | - |
| 1777867804 | 16.67° C | 70% | 1024.3 hPa | 0 mm | - | - | - |
| 1777867204 | 17.78° C | 68% | 1024.3 hPa | 0 mm | - | - | - |
| 1777866604 | 16.67° C | 70% | 1024.1 hPa | 0 mm | - | - | - |
| 1777866004 | 16.67° C | 71% | 1024.2 hPa | 0 mm | - | - | - |
| 1777865404 | 17.22° C | 70% | 1024.1 hPa | 0 mm | - | - | - |
| 1777864804 | 17.22° C | 68% | 1024.3 hPa | 0 mm | - | - | - |
| 1777864204 | 17.78° C | 68% | 1024.1 hPa | 0 mm | - | - | - |
| 1777863604 | 18.33° C | 65% | 1024.1 hPa | 0 mm | - | - | - |
| 1777863004 | 18.33° C | 63% | 1024.1 hPa | 0 mm | - | - | - |
| 1777862404 | 19.44° C | 60% | 1024.2 hPa | 0 mm | - | - | - |
| 1777861804 | 20° C | 60% | 1024.2 hPa | 0 mm | - | - | - |
| 1777861204 | 20.56° C | 58% | 1024.1 hPa | 0 mm | - | - | - |
| 1777860604 | 20° C | 59% | 1023.9 hPa | 0 mm | - | - | - |
| 1777860004 | 20° C | 58% | 1024.1 hPa | 0 mm | - | - | - |
| 1777859404 | 20.56° C | 57% | 1024.1 hPa | 0 mm | - | - | - |
| 1777858804 | 19.44° C | 59% | 1024.3 hPa | 0 mm | - | - | - |
| 1777858204 | 20.56° C | 58% | 1024.4 hPa | 0 mm | - | - | - |
| 1777857604 | 18.89° C | 63% | 1024.4 hPa | 0 mm | - | - | - |
| 1777857004 | 18.33° C | 66% | 1024.6 hPa | 0 mm | - | - | - |
| 1777856404 | 17.78° C | 68% | 1024.9 hPa | 0 mm | - | - | - |
* Rain latest hour (hover to see other rain measurements)
** Current wind speed in m/s (hover to see current wind gust speed)